Time;durP1;ratioP1;P1;durP2;ratioP2;P2;SDS_P1;SDS_P2;PMS_P1;PMS_P2;Temp;Humidity;BMP_temperature;BMP_pressure;BME280_temperature;BME280_humidity;BME280_pressure;Samples;Min_cycle;Max_cycle;Signal;HPM_P1;HPM_P2
2022/05/07 00:00:36;;;;;;;15.75;8.23;;;14.30;68.30;;;;;;5035916;28;20029;-71
2022/05/07 00:03:02;;;;;;;14.23;7.93;;;14.20;68.50;;;;;;5066619;28;20082;-74
2022/05/07 00:05:27;;;;;;;11.43;6.43;;;14.20;68.60;;;;;;5042256;28;20028;-73
2022/05/07 00:07:53;;;;;;;12.18;7.30;;;14.10;68.80;;;;;;5036005;28;20029;-72
2022/05/07 00:10:19;;;;;;;11.93;7.00;;;14.00;69.10;;;;;;5034412;28;20021;-72
2022/05/07 00:12:45;;;;;;;13.77;7.25;;;14.00;69.20;;;;;;5034089;28;20071;-72
2022/05/07 00:15:11;;;;;;;13.68;7.43;;;14.00;69.20;;;;;;5034138;28;20070;-72
2022/05/07 00:20:21;;;;;;;14.52;8.55;;;14.00;69.20;;;;;;5035616;28;20033;-72
2022/05/07 00:22:47;;;;;;;13.13;7.57;;;13.90;69.60;;;;;;5033992;28;20038;-72
2022/05/07 00:25:13;;;;;;;14.00;6.50;;;13.90;69.50;;;;;;5035355;28;20026;-72
2022/05/07 00:27:39;;;;;;;13.80;7.45;;;13.90;69.50;;;;;;5035473;28;20465;-72
2022/05/07 00:30:06;;;;;;;18.25;8.70;;;13.80;70.00;;;;;;5033897;28;20053;-72
2022/05/07 00:32:31;;;;;;;12.98;7.00;;;13.80;69.90;;;;;;5034840;28;20040;-72
2022/05/07 00:34:57;;;;;;;12.80;7.70;;;13.80;69.90;;;;;;5035109;28;20484;-72
2022/05/07 00:37:23;;;;;;;10.75;7.10;;;13.80;70.00;;;;;;5067089;28;20318;-72
2022/05/07 00:39:52;;;;;;;14.02;7.90;;;13.80;70.00;;;;;;5033989;28;20035;-72
2022/05/07 00:42:18;;;;;;;16.77;8.48;;;13.70;70.00;;;;;;5033735;28;20025;-72
2022/05/07 00:44:44;;;;;;;13.30;8.35;;;13.80;70.00;;;;;;5034999;28;20021;-73
2022/05/07 00:47:22;;;;;;;15.50;7.88;;;13.70;70.20;;;;;;5035035;28;20044;-73
2022/05/07 00:49:50;;;;;;;13.40;7.55;;;13.70;70.20;;;;;;5035104;28;20033;-73
2022/05/07 00:52:18;;;;;;;14.88;8.93;;;13.70;70.10;;;;;;5033128;28;20053;-73
2022/05/07 00:54:45;;;;;;;14.68;8.73;;;13.70;70.20;;;;;;5033874;28;20128;-73
2022/05/07 00:57:12;;;;;;;16.02;8.60;;;13.70;70.40;;;;;;5035102;28;20032;-73
2022/05/07 00:59:38;;;;;;;14.65;7.63;;;13.70;70.00;;;;;;5035229;28;20029;-73
2022/05/07 01:02:04;;;;;;;14.77;8.07;;;13.70;70.10;;;;;;5034936;28;20036;-73
2022/05/07 01:04:30;;;;;;;15.00;7.45;;;13.70;70.00;;;;;;5048793;28;20495;-73
2022/05/07 01:06:56;;;;;;;13.23;7.43;;;13.70;70.10;;;;;;5054924;28;20083;-73
2022/05/07 01:09:22;;;;;;;14.45;8.38;;;13.70;70.10;;;;;;5054358;28;20691;-73
2022/05/07 01:11:48;;;;;;;11.82;6.68;;;13.60;70.50;;;;;;5052974;28;20546;-73
2022/05/07 01:14:14;;;;;;;14.52;7.88;;;13.50;70.70;;;;;;5037724;28;20045;-73
2022/05/07 01:16:40;;;;;;;15.55;7.55;;;13.50;71.10;;;;;;5038849;28;20060;-73
2022/05/07 01:19:05;;;;;;;14.50;8.07;;;13.30;70.60;;;;;;5037826;28;20088;-73
2022/05/07 01:21:31;;;;;;;15.23;8.02;;;13.30;71.30;;;;;;5038794;28;20044;-73
2022/05/07 01:23:57;;;;;;;16.13;8.05;;;13.30;71.70;;;;;;5038661;28;20061;-72
2022/05/07 01:26:23;;;;;;;15.57;8.15;;;13.30;71.30;;;;;;5058257;28;20029;-73
2022/05/07 01:28:49;;;;;;;18.40;9.57;;;13.30;71.60;;;;;;5037951;28;20029;-73
2022/05/07 01:31:16;;;;;;;16.65;7.90;;;13.30;71.20;;;;;;5038650;28;20159;-73
2022/05/07 01:33:42;;;;;;;13.90;7.45;;;13.40;71.30;;;;;;5048838;28;20031;-73
2022/05/07 01:36:11;;;;;;;14.35;8.63;;;13.40;70.70;;;;;;5057111;28;20028;-73
2022/05/07 01:38:37;;;;;;;16.67;7.18;;;13.40;70.70;;;;;;5057921;28;20157;-73
2022/05/07 01:41:03;;;;;;;18.15;9.13;;;13.40;71.50;;;;;;5038743;28;20091;-73
2022/05/07 01:43:32;;;;;;;13.60;7.28;;;13.40;71.40;;;;;;5047395;28;20037;-73
2022/05/07 01:45:59;;;;;;;16.10;7.15;;;13.40;71.50;;;;;;5058196;28;20025;-73
2022/05/07 01:48:24;;;;;;;13.45;7.90;;;13.40;71.30;;;;;;5056862;28;20049;-73
2022/05/07 01:50:50;;;;;;;13.70;8.02;;;13.50;71.20;;;;;;5047124;28;20029;-73
2022/05/07 01:53:16;;;;;;;15.27;7.82;;;13.40;71.60;;;;;;5055440;28;20081;-73
2022/05/07 01:55:42;;;;;;;14.48;8.07;;;13.40;71.10;;;;;;5037025;28;20034;-73
2022/05/07 01:58:07;;;;;;;13.77;7.05;;;13.40;71.30;;;;;;5037995;28;20137;-73
2022/05/07 02:00:34;;;;;;;14.88;7.97;;;13.40;71.50;;;;;;5038015;28;20108;-73
2022/05/07 02:03:01;;;;;;;12.23;6.97;;;13.30;71.00;;;;;;5039455;28;20129;-73
2022/05/07 02:05:28;;;;;;;14.68;8.13;;;13.30;71.80;;;;;;5057280;28;20029;-73
2022/05/07 02:07:55;;;;;;;13.93;7.45;;;13.30;72.00;;;;;;5057916;28;20513;-73
2022/05/07 02:10:21;;;;;;;15.57;7.85;;;13.30;71.90;;;;;;5052588;28;20025;-73
2022/05/07 02:12:49;;;;;;;18.95;9.27;;;13.30;71.90;;;;;;5037867;28;20041;-73
2022/05/07 02:15:14;;;;;;;16.52;8.38;;;13.20;72.10;;;;;;5037948;28;20022;-73
2022/05/07 02:17:40;;;;;;;18.85;9.52;;;13.30;71.70;;;;;;5037686;28;20380;-73
2022/05/07 02:20:07;;;;;;;16.95;8.95;;;13.20;72.40;;;;;;5037876;28;20033;-73
2022/05/07 02:22:33;;;;;;;13.65;8.93;;;13.20;71.90;;;;;;5036540;28;20022;-73
2022/05/07 02:24:58;;;;;;;15.95;9.10;;;13.20;72.30;;;;;;5037554;28;20072;-74
2022/05/07 02:27:25;;;;;;;15.93;8.80;;;13.20;72.40;;;;;;5037422;28;20103;-73
2022/05/07 02:29:51;;;;;;;18.98;8.68;;;13.10;73.20;;;;;;5037196;28;20487;-73
2022/05/07 02:32:17;;;;;;;15.57;8.45;;;13.10;73.00;;;;;;5036323;28;20483;-73
2022/05/07 02:34:43;;;;;;;17.63;9.55;;;13.10;72.80;;;;;;5044255;28;20043;-73
2022/05/07 02:37:09;;;;;;;15.43;8.32;;;13.20;72.20;;;;;;5057549;28;20780;-73
2022/05/07 02:39:35;;;;;;;15.60;7.75;;;13.20;72.60;;;;;;5044986;28;20377;-73
2022/05/07 02:44:46;;;;;;;16.58;8.32;;;13.20;73.00;;;;;;5037113;28;20411;-73
2022/05/07 02:47:11;;;;;;;17.85;8.25;;;13.20;72.80;;;;;;5035809;28;20033;-73
2022/05/07 02:49:37;;;;;;;14.90;8.40;;;13.20;72.50;;;;;;5037223;28;20060;-73
2022/05/07 02:52:03;;;;;;;16.48;8.13;;;13.20;72.70;;;;;;5054862;28;20100;-73
2022/05/07 02:54:29;;;;;;;13.63;7.68;;;13.20;72.60;;;;;;5057161;28;20024;-73
2022/05/07 02:56:55;;;;;;;15.55;8.75;;;13.20;72.80;;;;;;5055695;28;20029;-73
2022/05/07 02:59:21;;;;;;;14.40;7.70;;;13.20;72.50;;;;;;5055312;28;20403;-73
2022/05/07 03:01:46;;;;;;;14.82;8.13;;;13.30;72.10;;;;;;5056918;28;20032;-73
2022/05/07 03:04:12;;;;;;;18.77;8.80;;;13.30;72.30;;;;;;5053653;28;20033;-73
2022/05/07 03:06:38;;;;;;;16.42;8.55;;;13.30;72.20;;;;;;5056867;28;20028;-73
2022/05/07 03:09:04;;;;;;;17.30;8.18;;;13.40;72.30;;;;;;5052614;28;20022;-74
2022/05/07 03:11:33;;;;;;;15.80;7.93;;;13.40;72.40;;;;;;5036767;28;20032;-73
2022/05/07 03:14:02;;;;;;;16.92;8.15;;;13.40;72.40;;;;;;5041787;28;20107;-73
2022/05/07 03:16:29;;;;;;;14.07;7.67;;;13.50;72.40;;;;;;5056035;28;20028;-73
2022/05/07 03:18:54;;;;;;;13.65;7.38;;;13.40;72.60;;;;;;5056544;28;20029;-74
2022/05/07 03:21:20;;;;;;;14.60;7.55;;;13.40;72.40;;;;;;5049610;28;20510;-73
2022/05/07 03:23:46;;;;;;;14.35;7.22;;;13.50;72.30;;;;;;5036632;28;20034;-73
2022/05/07 03:26:12;;;;;;;13.73;6.93;;;13.50;72.30;;;;;;5036529;28;20102;-73
2022/05/07 03:28:39;;;;;;;11.88;7.40;;;13.50;72.10;;;;;;5036378;28;20455;-73
2022/05/07 03:31:05;;;;;;;12.93;7.45;;;13.50;72.40;;;;;;5035080;28;20026;-74
2022/05/07 03:33:31;;;;;;;12.43;6.88;;;13.50;72.30;;;;;;5039319;28;20036;-73
2022/05/07 03:35:57;;;;;;;15.45;8.52;;;13.60;72.70;;;;;;5056162;28;20025;-73
2022/05/07 03:38:23;;;;;;;12.82;7.22;;;13.60;72.20;;;;;;5054859;28;20056;-73
2022/05/07 03:40:49;;;;;;;16.63;7.50;;;13.60;72.20;;;;;;5056432;28;20021;-73
2022/05/07 03:43:15;;;;;;;13.15;7.15;;;13.60;72.60;;;;;;5049387;28;20829;-73
2022/05/07 03:45:42;;;;;;;12.68;7.43;;;13.60;72.60;;;;;;5036623;28;20403;-73
2022/05/07 03:48:09;;;;;;;11.93;7.13;;;13.60;72.50;;;;;;5045566;28;20076;-73
2022/05/07 03:50:34;;;;;;;10.85;6.63;;;13.60;72.40;;;;;;5036054;28;20041;-73
2022/05/07 03:55:44;;;;;;;18.00;8.38;;;13.60;72.50;;;;;;5056113;28;20035;-73
2022/05/07 03:58:15;;;;;;;15.95;7.45;;;13.60;72.80;;;;;;5055898;28;20025;-73
2022/05/07 04:00:44;;;;;;;15.18;7.85;;;13.60;72.80;;;;;;5054209;28;20025;-73
2022/05/07 04:03:11;;;;;;;13.07;8.05;;;13.60;73.20;;;;;;5039465;28;20697;-73
2022/05/07 04:05:38;;;;;;;14.93;7.70;;;13.60;72.90;;;;;;5051955;28;20049;-73
2022/05/07 04:08:04;;;;;;;14.68;7.57;;;13.60;73.00;;;;;;5033981;28;20044;-73
2022/05/07 04:10:29;;;;;;;14.90;7.85;;;13.60;73.30;;;;;;5050229;28;20028;-73
2022/05/07 04:12:55;;;;;;;12.88;7.60;;;13.70;72.90;;;;;;5054069;28;20029;-73
2022/05/07 04:15:21;;;;;;;12.05;6.18;;;13.70;72.70;;;;;;5054377;28;20029;-73
2022/05/07 04:17:48;;;;;;;18.13;8.50;;;13.70;72.80;;;;;;5034869;28;20041;-73
2022/05/07 04:20:14;;;;;;;14.80;7.75;;;13.70;73.00;;;;;;5033655;28;20072;-73
2022/05/07 04:22:40;;;;;;;15.75;8.20;;;13.70;73.00;;;;;;5033739;28;20581;-73
2022/05/07 04:25:08;;;;;;;11.60;7.20;;;13.70;72.90;;;;;;5033795;28;20812;-73
2022/05/07 04:27:33;;;;;;;12.27;7.20;;;13.70;73.20;;;;;;5033099;28;20033;-73
2022/05/07 04:29:59;;;;;;;16.60;7.57;;;13.70;73.20;;;;;;5031917;28;20025;-73
2022/05/07 04:32:26;;;;;;;13.55;7.30;;;13.70;73.60;;;;;;5032133;28;20029;-73
2022/05/07 04:34:52;;;;;;;13.25;7.18;;;13.70;73.30;;;;;;5033542;28;20081;-73
2022/05/07 04:37:17;;;;;;;18.50;8.23;;;13.70;73.50;;;;;;5033582;28;20079;-73
2022/05/07 04:39:43;;;;;;;12.27;6.47;;;13.70;73.30;;;;;;5033270;28;20030;-73
2022/05/07 04:42:09;;;;;;;12.88;6.57;;;13.70;73.10;;;;;;5031933;28;20037;-73
2022/05/07 04:44:35;;;;;;;15.85;8.25;;;13.80;73.20;;;;;;5031294;28;20025;-73
2022/05/07 04:47:01;;;;;;;11.18;6.60;;;13.80;73.50;;;;;;5033525;28;20051;-73
2022/05/07 04:49:26;;;;;;;18.33;8.35;;;13.80;73.50;;;;;;5031968;28;20116;-73
2022/05/07 04:51:52;;;;;;;11.40;6.82;;;13.70;73.80;;;;;;5040731;28;20079;-73
2022/05/07 04:54:20;;;;;;;13.02;7.25;;;13.80;73.60;;;;;;5052267;28;20049;-73
2022/05/07 04:56:46;;;;;;;15.38;8.00;;;13.80;73.30;;;;;;5051840;28;20105;-73
2022/05/07 04:59:14;;;;;;;14.77;6.05;;;13.90;73.10;;;;;;5051793;28;20101;-73
2022/05/07 05:01:40;;;;;;;12.85;7.00;;;13.90;73.30;;;;;;5052766;28;20033;-72
2022/05/07 05:04:05;;;;;;;13.30;7.75;;;13.90;73.30;;;;;;5045953;28;20039;-73
2022/05/07 05:06:31;;;;;;;14.18;6.60;;;14.00;73.30;;;;;;5035363;28;20076;-73
2022/05/07 05:08:57;;;;;;;12.57;7.07;;;13.90;73.20;;;;;;5052963;28;20099;-73
2022/05/07 05:11:22;;;;;;;16.73;8.00;;;14.00;73.20;;;;;;5047415;28;20092;-73
2022/05/07 05:13:48;;;;;;;14.93;6.78;;;14.00;73.20;;;;;;5032767;28;20033;-73
2022/05/07 05:16:14;;;;;;;11.82;6.38;;;13.90;73.80;;;;;;5032968;28;20033;-73
2022/05/07 05:18:40;;;;;;;12.60;6.60;;;13.90;73.80;;;;;;5033285;28;20048;-73
2022/05/07 05:21:05;;;;;;;12.13;5.88;;;14.00;73.90;;;;;;5048035;28;20044;-73
2022/05/07 05:23:31;;;;;;;13.50;7.05;;;14.00;73.70;;;;;;5051379;28;20057;-73
2022/05/07 05:25:57;;;;;;;12.05;6.68;;;14.00;73.80;;;;;;5034633;28;20107;-73
2022/05/07 05:28:23;;;;;;;10.82;6.35;;;14.10;73.50;;;;;;5032661;28;20104;-73
2022/05/07 05:30:51;;;;;;;12.07;6.65;;;14.20;73.80;;;;;;5031566;28;20068;-73
2022/05/07 05:33:20;;;;;;;11.38;6.05;;;14.20;73.30;;;;;;5033735;28;20388;-73
2022/05/07 05:35:46;;;;;;;13.60;6.57;;;14.30;73.30;;;;;;5038628;28;20088;-73
2022/05/07 05:38:12;;;;;;;11.43;5.47;;;14.30;73.20;;;;;;5039478;28;20530;-73
2022/05/07 05:40:38;;;;;;;11.85;5.97;;;14.40;73.20;;;;;;5042406;28;20377;-72
2022/05/07 05:43:03;;;;;;;11.18;5.90;;;14.40;73.40;;;;;;5038826;28;20038;-74
2022/05/07 05:45:29;;;;;;;12.57;6.20;;;14.50;73.10;;;;;;5042942;28;20055;-74
2022/05/07 05:47:55;;;;;;;11.02;6.20;;;14.50;73.40;;;;;;5042404;28;20055;-77
2022/05/07 06:47:56;;;;;;;6.35;4.13;;;14.50;76.70;;;;;;5070430;28;20374;-76
2022/05/07 06:50:22;;;;;;;8.07;4.80;;;14.70;76.20;;;;;;5069371;28;20047;-74
2022/05/07 06:52:48;;;;;;;8.80;4.40;;;15.00;75.60;;;;;;5054926;28;20044;-73
2022/05/07 06:55:17;;;;;;;6.75;3.67;;;15.30;74.70;;;;;;5033074;28;20017;-75
2022/05/07 06:57:43;;;;;;;8.95;4.35;;;15.50;73.50;;;;;;5030811;28;20037;-73
2022/05/07 07:00:10;;;;;;;9.52;4.40;;;15.70;73.10;;;;;;5030585;28;20614;-72
2022/05/07 07:02:37;;;;;;;8.13;5.32;;;15.70;72.50;;;;;;5030817;28;20025;-75
2022/05/07 07:05:03;;;;;;;6.78;3.95;;;15.80;71.80;;;;;;5042579;28;20029;-74
2022/05/07 07:07:30;;;;;;;9.60;3.97;;;15.90;71.50;;;;;;5044284;28;20021;-77
2022/05/07 07:09:56;;;;;;;8.30;4.13;;;16.00;71.00;;;;;;5045886;28;20102;-76
2022/05/07 07:12:22;;;;;;;10.80;3.83;;;16.00;71.10;;;;;;5034029;28;20048;-77
2022/05/07 07:14:48;;;;;;;5.18;3.42;;;16.10;71.00;;;;;;5045079;28;20079;-76
2022/05/07 07:17:18;;;;;;;6.82;3.50;;;16.20;70.50;;;;;;5045674;28;20025;-74
2022/05/07 07:19:47;;;;;;;6.85;3.78;;;16.30;69.90;;;;;;5043747;28;20018;-75
2022/05/07 07:22:13;;;;;;;6.53;2.95;;;16.50;69.50;;;;;;5055278;28;20040;-76
2022/05/07 07:24:39;;;;;;;5.40;2.75;;;16.60;68.90;;;;;;5056388;28;20899;-75
2022/05/07 07:27:06;;;;;;;6.03;2.65;;;16.80;68.30;;;;;;5054979;28;20112;-75
2022/05/07 07:29:33;;;;;;;5.15;2.70;;;16.80;68.10;;;;;;5055166;28;20025;-76
2022/05/07 07:31:58;;;;;;;4.97;2.67;;;17.40;67.20;;;;;;5061333;28;20070;-76
2022/05/07 07:34:24;;;;;;;4.50;2.92;;;17.70;66.00;;;;;;5061275;28;20028;-77
2022/05/07 07:36:50;;;;;;;3.42;2.13;;;18.30;63.90;;;;;;5052477;28;21453;-77
2022/05/07 07:39:17;;;;;;;3.10;2.20;;;18.50;62.80;;;;;;5019156;28;20021;-76
2022/05/07 07:41:43;;;;;;;3.05;2.10;;;18.60;62.40;;;;;;5045002;28;20506;-77
2022/05/07 07:44:09;;;;;;;2.92;1.70;;;18.80;61.60;;;;;;5046485;28;20131;-76
2022/05/07 07:49:20;;;;;;;3.50;1.90;;;18.40;61.70;;;;;;5047803;28;20090;-77
2022/05/07 07:51:45;;;;;;;4.13;2.10;;;18.30;61.70;;;;;;5049453;28;20025;-77
2022/05/07 07:54:11;;;;;;;3.70;1.63;;;18.30;62.10;;;;;;5048860;28;20092;-77
2022/05/07 07:56:37;;;;;;;4.68;2.47;;;18.20;61.90;;;;;;5049649;28;20037;-77
2022/05/07 07:59:02;;;;;;;5.88;2.63;;;18.20;62.50;;;;;;5036044;28;20022;-77
2022/05/07 08:01:28;;;;;;;4.40;2.63;;;18.10;62.90;;;;;;5035253;28;20041;-77
2022/05/07 08:03:54;;;;;;;5.60;3.03;;;17.90;63.40;;;;;;5037080;28;20029;-76
2022/05/07 08:06:20;;;;;;;3.80;2.47;;;17.70;63.80;;;;;;5039241;28;20418;-76
2022/05/07 08:11:46;;;;;;;4.43;2.25;;;17.70;64.30;;;;;;5040470;28;20041;-76
2022/05/07 08:14:13;;;;;;;3.65;2.55;;;17.70;64.20;;;;;;5039821;28;20021;-76
2022/05/07 08:16:40;;;;;;;4.68;2.13;;;17.70;64.50;;;;;;5029308;28;20029;-76
2022/05/07 08:19:06;;;;;;;4.43;2.20;;;17.70;64.20;;;;;;5034065;28;20025;-76
2022/05/07 08:21:32;;;;;;;2.63;1.95;;;17.70;64.00;;;;;;5032360;28;20698;-76
2022/05/07 08:23:58;;;;;;;4.32;2.15;;;17.70;64.10;;;;;;5034753;28;20438;-76
2022/05/07 08:26:25;;;;;;;5.13;2.30;;;17.80;64.00;;;;;;5034569;28;20025;-76
2022/05/07 08:28:53;;;;;;;4.32;2.25;;;18.00;63.30;;;;;;5034887;28;20022;-75
2022/05/07 08:31:23;;;;;;;6.07;1.90;;;18.10;62.40;;;;;;5031389;28;20036;-75
2022/05/07 08:33:50;;;;;;;4.50;1.67;;;18.10;62.80;;;;;;5036467;28;20033;-75
2022/05/07 08:36:16;;;;;;;2.20;1.38;;;18.30;62.80;;;;;;5028681;28;20416;-76
2022/05/07 08:38:43;;;;;;;2.92;1.80;;;18.30;61.80;;;;;;5029214;28;20033;-76
2022/05/07 08:41:12;;;;;;;3.53;2.00;;;18.40;61.60;;;;;;5037133;28;20057;-76
2022/05/07 08:43:41;;;;;;;2.55;1.63;;;18.60;61.60;;;;;;5036058;28;20499;-75
2022/05/07 08:46:13;;;;;;;6.28;1.50;;;18.70;60.30;;;;;;5054787;28;20045;-76
2022/05/07 08:48:40;;;;;;;3.17;1.95;;;18.90;60.90;;;;;;5048734;28;20071;-76
2022/05/07 08:51:06;;;;;;;4.65;1.90;;;19.00;60.80;;;;;;5035145;28;20032;-76
2022/05/07 08:53:33;;;;;;;2.22;1.58;;;19.30;59.80;;;;;;5022598;28;20073;-76
2022/05/07 08:55:59;;;;;;;2.42;1.98;;;19.50;58.80;;;;;;5012776;28;20475;-74
2022/05/07 08:58:25;;;;;;;3.25;1.33;;;19.70;58.30;;;;;;4989412;28;20030;-76
2022/05/07 09:00:50;;;;;;;4.20;2.00;;;21.00;55.80;;;;;;5014516;28;20499;-76
2022/05/07 09:03:17;;;;;;;3.83;1.55;;;22.50;52.20;;;;;;5001163;28;20123;-76
2022/05/07 09:05:43;;;;;;;3.05;1.30;;;22.80;50.40;;;;;;5032323;28;20029;-76
2022/05/07 09:08:12;;;;;;;3.45;1.60;;;22.50;49.90;;;;;;5026307;28;20575;-78
2022/05/07 09:10:40;;;;;;;2.97;1.55;;;22.10;50.60;;;;;;5014755;28;20029;-78
2022/05/07 09:13:15;;;;;;;2.53;1.30;;;22.00;51.10;;;;;;5034735;28;20100;-77
2022/05/07 09:15:50;;;;;;;3.65;1.52;;;21.60;51.70;;;;;;5044197;28;20617;-78
2022/05/07 09:18:18;;;;;;;2.58;1.60;;;21.10;52.70;;;;;;5036098;28;20025;-76
2022/05/07 09:20:44;;;;;;;1.73;1.30;;;20.80;53.60;;;;;;5035382;28;20519;-78
2022/05/07 09:23:10;;;;;;;3.92;1.35;;;20.70;53.90;;;;;;5014136;28;20034;-74
2022/05/07 09:25:48;;;;;;;4.65;1.70;;;20.70;53.80;;;;;;5013486;28;20104;-76
2022/05/07 09:28:25;;;;;;;2.75;1.60;;;20.70;54.40;;;;;;5033889;28;20025;-78
2022/05/07 09:30:55;;;;;;;2.55;1.50;;;20.40;54.20;;;;;;5015776;28;20026;-76
2022/05/07 09:33:32;;;;;;;5.20;1.85;;;20.30;55.20;;;;;;5019354;28;20024;-76
2022/05/07 09:36:11;;;;;;;4.18;2.15;;;20.30;55.10;;;;;;5029104;28;20030;-76
2022/05/07 09:38:38;;;;;;;5.53;2.15;;;20.30;55.80;;;;;;5042403;28;20601;-76
2022/05/07 09:41:05;;;;;;;3.72;2.67;;;20.20;56.30;;;;;;5038566;28;20635;-76
2022/05/07 09:43:31;;;;;;;3.03;1.75;;;20.20;55.70;;;;;;5031594;28;20037;-76
2022/05/07 09:45:57;;;;;;;6.13;2.13;;;20.30;55.80;;;;;;5032532;28;20557;-76
2022/05/07 09:48:23;;;;;;;3.47;2.00;;;20.20;55.80;;;;;;5034417;28;20495;-76
2022/05/07 09:50:50;;;;;;;4.15;2.20;;;20.30;55.80;;;;;;5040085;28;20177;-76
2022/05/07 09:58:51;;;;;;;4.30;1.73;;;21.80;52.10;;;;;;5053116;28;20044;-76
2022/05/07 10:01:37;;;;;;;2.60;1.48;;;21.70;52.60;;;;;;5029122;28;20037;-76
2022/05/07 10:04:51;;;;;;;3.38;1.38;;;21.60;52.40;;;;;;5032107;28;20084;-78
2022/05/07 10:07:26;;;;;;;3.80;1.63;;;21.40;52.00;;;;;;5014571;28;20041;-78
2022/05/07 10:10:02;;;;;;;3.70;1.80;;;21.10;52.60;;;;;;5030553;28;20109;-78
2022/05/07 10:12:28;;;;;;;3.72;1.60;;;20.90;53.30;;;;;;5033277;28;20052;-78
2022/05/07 10:15:05;;;;;;;2.30;1.70;;;20.90;54.10;;;;;;5031686;28;20547;-78
2022/05/07 10:17:30;;;;;;;2.08;1.48;;;20.80;54.40;;;;;;5016897;28;20041;-78
2022/05/07 10:20:09;;;;;;;3.50;1.63;;;20.70;54.30;;;;;;5039414;28;20079;-78
2022/05/07 10:22:35;;;;;;;2.58;1.30;;;21.00;53.90;;;;;;5038433;28;20507;-80
2022/05/07 10:25:12;;;;;;;2.05;1.60;;;21.20;53.90;;;;;;5039272;28;20562;-78
2022/05/07 10:27:41;;;;;;;2.00;1.20;;;21.80;52.40;;;;;;5031967;28;20021;-78
2022/05/07 10:30:22;;;;;;;2.75;1.20;;;22.30;51.70;;;;;;5044218;28;20103;-78
2022/05/07 10:32:57;;;;;;;12.75;7.90;;;22.20;51.10;;;;;;5034855;28;20110;-78
2022/05/07 10:35:47;;;;;;;9.52;5.28;;;22.30;50.70;;;;;;5030809;28;20017;-77
2022/05/07 10:38:37;;;;;;;5.88;2.75;;;22.30;50.90;;;;;;5013118;28;20034;-78
2022/05/07 10:41:18;;;;;;;6.50;3.20;;;22.50;51.40;;;;;;5013510;28;20029;-77
2022/05/07 10:43:59;;;;;;;2.60;1.30;;;22.90;48.90;;;;;;5013192;28;20057;-78
2022/05/07 10:46:25;;;;;;;2.28;1.15;;;23.20;47.90;;;;;;5013288;28;20461;-77
2022/05/07 10:48:56;;;;;;;2.50;1.67;;;23.40;47.80;;;;;;5012976;28;20028;-78
2022/05/07 10:51:37;;;;;;;1.80;1.08;;;23.10;48.70;;;;;;5048347;28;20421;-79
2022/05/07 10:54:24;;;;;;;1.98;0.98;;;22.80;49.10;;;;;;5020522;28;20040;-85
2022/05/07 10:56:56;;;;;;;1.98;1.17;;;22.60;49.50;;;;;;5020802;28;20038;-77
2022/05/07 10:59:23;;;;;;;2.17;0.77;;;22.80;50.60;;;;;;5013002;28;20107;-81
2022/05/07 11:01:50;;;;;;;3.13;2.20;;;22.90;50.00;;;;;;5020262;28;20044;-77
2022/05/07 11:04:19;;;;;;;7.80;3.60;;;23.20;47.60;;;;;;5014605;28;20040;-75
2022/05/07 11:06:47;;;;;;;4.35;2.10;;;23.10;48.40;;;;;;5029068;28;20030;-77
2022/05/07 11:09:21;;;;;;;1.77;1.10;;;23.30;48.50;;;;;;5031590;28;20044;-77
2022/05/07 11:11:49;;;;;;;1.48;0.90;;;23.60;49.00;;;;;;5031117;28;20160;-78
2022/05/07 11:14:35;;;;;;;1.90;1.10;;;23.70;48.00;;;;;;5033823;28;20021;-75
2022/05/07 11:17:04;;;;;;;1.90;0.93;;;23.80;48.40;;;;;;5024670;28;20046;-75
2022/05/07 11:19:34;;;;;;;1.50;0.90;;;23.90;46.90;;;;;;5017454;28;20723;-84
2022/05/07 11:22:08;;;;;;;2.35;0.80;;;24.00;47.50;;;;;;5017046;28;20041;-80
2022/05/07 11:24:34;;;;;;;1.50;0.90;;;24.20;47.00;;;;;;5034900;28;20022;-75
2022/05/07 11:27:07;;;;;;;1.77;1.05;;;24.20;46.50;;;;;;5031152;28;20045;-76
2022/05/07 11:29:34;;;;;;;3.15;0.90;;;24.20;46.20;;;;;;5015288;28;20106;-77
2022/05/07 11:32:07;;;;;;;2.67;1.00;;;24.10;46.60;;;;;;5013531;28;20026;-77
2022/05/07 11:34:37;;;;;;;1.52;0.95;;;24.10;46.80;;;;;;5017465;28;20014;-76
2022/05/07 11:37:36;;;;;;;1.80;0.90;;;23.80;46.70;;;;;;5017051;28;20109;-77
2022/05/07 11:40:03;;;;;;;1.48;1.02;;;23.70;46.80;;;;;;5015412;28;20025;-77
2022/05/07 11:42:33;;;;;;;1.40;0.80;;;23.70;47.40;;;;;;5017567;28;20571;-76
2022/05/07 11:48:02;;;;;;;1.70;0.80;;;23.40;48.30;;;;;;5020150;28;20536;-84
2022/05/07 11:50:31;;;;;;;3.08;0.90;;;23.30;48.50;;;;;;5015755;28;20121;-82
2022/05/07 11:53:09;;;;;;;1.50;0.90;;;23.20;48.40;;;;;;5032327;28;20068;-77
2022/05/07 11:55:34;;;;;;;2.97;0.93;;;23.10;48.30;;;;;;5036498;28;20033;-77
2022/05/07 11:58:12;;;;;;;1.35;0.77;;;23.00;49.10;;;;;;5033495;28;20105;-77
2022/05/07 12:00:42;;;;;;;2.30;1.00;;;22.90;49.90;;;;;;5034929;28;20052;-83
2022/05/07 12:03:08;;;;;;;2.05;1.00;;;23.00;50.20;;;;;;5023776;28;20420;-77
2022/05/07 12:05:39;;;;;;;2.20;0.85;;;23.40;51.00;;;;;;5036305;28;20022;-75
2022/05/07 12:08:13;;;;;;;1.45;0.90;;;23.50;49.00;;;;;;5033300;28;20074;-80
2022/05/07 12:10:39;;;;;;;2.05;0.75;;;23.40;49.20;;;;;;5045585;28;20111;-80
2022/05/07 12:13:05;;;;;;;1.40;0.90;;;23.00;49.50;;;;;;5044612;28;20048;-74
2022/05/07 12:18:15;;;;;;;2.92;1.00;;;23.20;50.80;;;;;;5038186;28;20111;-76
2022/05/07 12:20:41;;;;;;;1.15;0.50;;;23.40;50.30;;;;;;5040769;28;20025;-76
2022/05/07 12:31:19;;;;;;;2.83;1.15;;;23.40;48.60;;;;;;5035899;28;20360;-76
2022/05/07 12:33:45;;;;;;;2.70;1.15;;;23.40;50.20;;;;;;5033782;28;20060;-76
2022/05/07 12:36:10;;;;;;;2.42;1.20;;;23.70;48.30;;;;;;5032202;28;20471;-76
2022/05/07 12:38:36;;;;;;;2.05;1.13;;;23.90;47.60;;;;;;5042081;28;20069;-76
2022/05/07 12:41:02;;;;;;;2.42;1.33;;;23.90;47.00;;;;;;5050549;28;20017;-76
2022/05/07 12:43:28;;;;;;;2.40;1.13;;;23.80;46.80;;;;;;5050900;28;20029;-76
2022/05/07 12:45:54;;;;;;;3.63;1.40;;;24.00;47.30;;;;;;5039675;28;20095;-76
2022/05/07 12:48:20;;;;;;;1.80;1.02;;;24.20;47.10;;;;;;5034424;28;20397;-76
2022/05/07 12:50:46;;;;;;;2.50;1.42;;;23.90;47.70;;;;;;5063318;28;20029;-76
2022/05/07 12:53:15;;;;;;;2.28;1.30;;;23.90;48.00;;;;;;5043076;28;20044;-76
2022/05/07 12:55:42;;;;;;;2.67;1.33;;;23.90;45.80;;;;;;5039105;28;20022;-76
2022/05/07 12:58:09;;;;;;;1.90;1.23;;;23.80;46.00;;;;;;5038087;28;20029;-77
2022/05/07 13:00:35;;;;;;;2.80;1.33;;;23.80;45.40;;;;;;5043837;28;20032;-77
2022/05/07 13:03:02;;;;;;;2.15;1.27;;;23.80;47.00;;;;;;5039625;28;20033;-77
2022/05/07 13:05:28;;;;;;;4.70;1.55;;;23.80;47.30;;;;;;5046223;28;20021;-77
2022/05/07 13:07:54;;;;;;;2.92;1.30;;;23.60;47.10;;;;;;5038768;28;20124;-77
2022/05/07 13:10:19;;;;;;;2.70;1.15;;;23.10;46.80;;;;;;5041987;28;20068;-78
2022/05/07 13:12:46;;;;;;;2.17;1.15;;;23.20;47.30;;;;;;5041795;28;20032;-76
2022/05/07 13:15:12;;;;;;;1.92;1.08;;;23.30;47.00;;;;;;5035384;28;20455;-76
2022/05/07 13:17:40;;;;;;;2.80;0.90;;;23.50;46.60;;;;;;5054108;28;20029;-77
2022/05/07 13:20:07;;;;;;;4.38;0.80;;;23.10;46.40;;;;;;5042026;28;20054;-76
2022/05/07 13:22:32;;;;;;;4.75;1.23;;;22.90;46.70;;;;;;5028850;28;20036;-76
2022/05/07 13:24:58;;;;;;;1.55;0.85;;;22.90;46.60;;;;;;5032389;28;20022;-76
2022/05/07 13:27:24;;;;;;;2.28;0.77;;;22.70;46.30;;;;;;5020325;28;20038;-76
2022/05/07 13:29:50;;;;;;;2.70;0.65;;;22.40;46.20;;;;;;5034586;28;20048;-76
2022/05/07 13:32:16;;;;;;;2.35;0.70;;;22.20;46.70;;;;;;5033775;28;20037;-76
2022/05/07 13:34:42;;;;;;;1.40;0.95;;;22.40;47.60;;;;;;5032594;28;20048;-76
2022/05/07 13:37:08;;;;;;;1.08;0.60;;;22.50;46.60;;;;;;5033159;28;20029;-76
2022/05/07 13:39:34;;;;;;;1.95;0.63;;;22.60;46.10;;;;;;5033419;28;20076;-76
2022/05/07 13:42:01;;;;;;;2.20;1.20;;;22.90;46.20;;;;;;5031571;28;20022;-76
2022/05/07 13:44:27;;;;;;;1.38;0.82;;;23.00;45.90;;;;;;5037216;28;20041;-76
2022/05/07 13:46:55;;;;;;;1.30;0.90;;;22.90;45.50;;;;;;5033170;28;20187;-76
2022/05/07 13:49:20;;;;;;;2.75;0.95;;;22.70;45.70;;;;;;5040448;28;20035;-76
2022/05/07 13:51:46;;;;;;;16.42;14.68;;;22.60;46.50;;;;;;5045497;28;20108;-77
2022/05/07 13:54:12;;;;;;;1.02;0.60;;;22.60;46.80;;;;;;5029553;28;20492;-77
2022/05/07 13:56:38;;;;;;;1.85;0.88;;;22.70;46.20;;;;;;5028935;28;20025;-75
2022/05/07 13:59:03;;;;;;;2.20;0.98;;;22.80;46.30;;;;;;5036223;28;20104;-77
2022/05/07 14:01:29;;;;;;;1.52;0.60;;;22.80;45.50;;;;;;5039904;28;20557;-76
2022/05/07 14:03:55;;;;;;;5.55;0.70;;;22.80;45.60;;;;;;5037955;28;20026;-75
2022/05/07 14:06:22;;;;;;;1.23;0.70;;;22.90;45.20;;;;;;5038957;28;20459;-76
2022/05/07 14:08:48;;;;;;;0.88;0.50;;;22.90;45.00;;;;;;5031467;28;20032;-76
2022/05/07 14:11:14;;;;;;;1.77;1.00;;;22.70;45.50;;;;;;5042772;28;20033;-76
2022/05/07 14:13:41;;;;;;;2.17;0.60;;;22.70;46.20;;;;;;5035866;28;20495;-76
2022/05/07 14:16:08;;;;;;;1.10;0.70;;;22.80;46.00;;;;;;5037228;28;20037;-76